Time;durP1;ratioP1;P1;durP2;ratioP2;P2;SDS_P1;SDS_P2;PMS_P1;PMS_P2;Temp;Humidity;BMP_temperature;BMP_pressure;BME280_temperature;BME280_humidity;BME280_pressure;Samples;Min_cycle;Max_cycle;Signal;HPM_P1;HPM_P2
2023/03/18 00:00:38;;;;;;;;;;;10.60;1.00;;;;;;5093239;28;19912;-74
2023/03/18 00:03:05;;;;;;;;;;;10.60;1.00;;;;;;5095073;28;19908;-74
2023/03/18 00:05:31;;;;;;;;;;;10.60;1.00;;;;;;5095556;28;20049;-74
2023/03/18 00:07:57;;;;;;;;;;;10.60;1.00;;;;;;5094169;28;20390;-74
2023/03/18 00:10:22;;;;;;;;;;;10.60;1.00;;;;;;5093630;28;19927;-74
2023/03/18 00:12:48;;;;;;;;;;;10.70;1.00;;;;;;5094743;28;19912;-74
2023/03/18 00:15:21;;;;;;;;;;;10.70;1.00;;;;;;5094844;28;20002;-75
2023/03/18 00:17:47;;;;;;;;;;;10.70;1.00;;;;;;5094335;28;19916;-74
2023/03/18 00:20:15;;;;;;;;;;;10.70;1.00;;;;;;5095634;28;19920;-74
2023/03/18 00:22:42;;;;;;;;;;;10.70;1.00;;;;;;5075129;28;19919;-74
2023/03/18 00:25:09;;;;;;;;;;;10.80;1.00;;;;;;5074556;28;19909;-75
2023/03/18 00:27:35;;;;;;;;;;;10.70;1.00;;;;;;5063286;28;19919;-74
2023/03/18 00:30:02;;;;;;;;;;;10.80;1.00;;;;;;5094755;28;19908;-75
2023/03/18 00:32:27;;;;;;;;;;;10.80;1.00;;;;;;5094995;28;19991;-75
2023/03/18 00:34:54;;;;;;;;;;;10.80;1.00;;;;;;5095040;28;19954;-75
2023/03/18 00:37:29;;;;;;;;;;;10.90;1.00;;;;;;5092972;28;19916;-74
2023/03/18 00:39:56;;;;;;;;;;;10.90;1.00;;;;;;5076186;28;19915;-75
2023/03/18 00:42:22;;;;;;;;;;;10.90;1.00;;;;;;5094747;28;19916;-74
2023/03/18 00:44:48;;;;;;;;;;;11.00;1.00;;;;;;5076018;28;20396;-74
2023/03/18 00:47:14;;;;;;;;;;;11.00;1.00;;;;;;5088509;28;19955;-75
2023/03/18 00:49:39;;;;;;;;;;;11.00;1.00;;;;;;5094301;28;19912;-74
2023/03/18 00:52:05;;;;;;;;;;;11.00;1.00;;;;;;5094335;28;19979;-74
2023/03/18 00:54:30;;;;;;;;;;;10.90;1.00;;;;;;5094658;28;19911;-75
2023/03/18 00:57:03;;;;;;;;;;;10.90;1.00;;;;;;5094282;28;20379;-74
2023/03/18 00:59:33;;;;;;;;;;;10.90;1.00;;;;;;5093811;28;19916;-75
2023/03/18 01:02:09;;;;;;;;;;;11.00;1.00;;;;;;5094085;28;19912;-74
2023/03/18 01:04:39;;;;;;;;;;;11.00;1.00;;;;;;5093770;28;19919;-81
2023/03/18 01:07:10;;;;;;;;;;;11.00;1.00;;;;;;5094226;28;19994;-81
2023/03/18 01:12:40;;;;;;;;;;;11.00;1.00;;;;;;5094210;28;19947;-81
2023/03/18 01:15:22;;;;;;;;;;;11.00;1.00;;;;;;5094292;28;19908;-81
2023/03/18 01:17:53;;;;;;;;;;;11.00;1.00;;;;;;5093820;28;19918;-81
2023/03/18 01:20:19;;;;;;;;;;;10.90;1.00;;;;;;5076283;28;19908;-75
2023/03/18 01:22:45;;;;;;;;;;;10.90;1.00;;;;;;5092173;28;19915;-74
2023/03/18 01:25:11;;;;;;;;;;;10.80;1.00;;;;;;5073855;28;19912;-74
2023/03/18 01:27:37;;;;;;;;;;;10.80;1.00;;;;;;5086739;28;19913;-74
2023/03/18 01:30:04;;;;;;;;;;;10.80;1.00;;;;;;5093963;28;19908;-75
2023/03/18 01:32:30;;;;;;;;;;;10.80;1.00;;;;;;5093856;28;20010;-75
2023/03/18 01:35:27;;;;;;;;;;;10.80;1.00;;;;;;5093998;28;20137;-81
2023/03/18 01:37:57;;;;;;;;;;;10.80;1.00;;;;;;5088519;28;19975;-81
2023/03/18 01:40:39;;;;;;;;;;;10.80;1.00;;;;;;5094069;28;20007;-82
2023/03/18 01:43:23;;;;;;;;;;;10.80;1.00;;;;;;5093827;28;19909;-81
2023/03/18 01:45:50;;;;;;;;;;;10.80;1.00;;;;;;5076106;28;20385;-82
2023/03/18 01:48:39;;;;;;;;;;;10.70;1.00;;;;;;5093464;28;19916;-81
2023/03/18 01:51:21;;;;;;;;;;;10.80;1.00;;;;;;5094472;28;19999;-81
2023/03/18 01:54:21;;;;;;;;;;;10.70;1.00;;;;;;5094342;28;19908;-82
2023/03/18 01:59:50;;;;;;;;;;;10.70;1.00;;;;;;5073713;28;19931;-81
2023/03/18 02:05:24;;;;;;;;;;;10.70;1.00;;;;;;5092791;28;20480;-81
2023/03/18 02:13:55;;;;;;;;;;;10.60;1.00;;;;;;5097638;28;20370;-82
2023/03/18 02:19:57;;;;;;;;;;;10.60;1.00;;;;;;5091273;28;19957;-81
2023/03/18 02:25:44;;;;;;;;;;;10.60;1.00;;;;;;5077297;28;19914;-81
2023/03/18 02:28:13;;;;;;;;;;;10.50;1.00;;;;;;5090118;28;19930;-81
2023/03/18 02:30:41;;;;;;;;;;;10.50;1.00;;;;;;5097462;28;19912;-81
2023/03/18 02:36:11;;;;;;;;;;;10.50;1.00;;;;;;5095556;28;19922;-74
2023/03/18 02:38:41;;;;;;;;;;;10.50;1.00;;;;;;5076694;28;19912;-74
2023/03/18 02:41:11;;;;;;;;;;;10.50;1.00;;;;;;5077302;28;19982;-75
2023/03/18 02:43:37;;;;;;;;;;;10.40;1.00;;;;;;5076508;28;19912;-75
2023/03/18 02:46:19;;;;;;;;;;;10.30;1.00;;;;;;5076870;28;19931;-75
2023/03/18 02:48:45;;;;;;;;;;;10.30;1.00;;;;;;5094916;28;19912;-74
2023/03/18 02:51:22;;;;;;;;;;;10.20;1.00;;;;;;5097378;28;20390;-81
2023/03/18 02:53:56;;;;;;;;;;;10.20;1.00;;;;;;5096246;28;19908;-81
2023/03/18 02:56:41;;;;;;;;;;;10.20;1.00;;;;;;5096806;28;20376;-81
2023/03/18 02:59:15;;;;;;;;;;;10.20;1.00;;;;;;5076044;28;19918;-81
2023/03/18 03:02:09;;;;;;;;;;;10.20;1.00;;;;;;5076301;28;19909;-81
2023/03/18 03:04:35;;;;;;;;;;;10.20;1.00;;;;;;5058382;28;20355;-81
2023/03/18 03:10:21;;;;;;;;;;;10.10;1.00;;;;;;5093689;28;19954;-81
2023/03/18 03:12:57;;;;;;;;;;;10.10;1.00;;;;;;5096084;28;19994;-81
2023/03/18 03:15:51;;;;;;;;;;;10.20;1.00;;;;;;5078141;28;20371;-81
2023/03/18 03:18:28;;;;;;;;;;;10.10;1.00;;;;;;5078082;28;20279;-81
2023/03/18 03:23:57;;;;;;;;;;;10.10;1.00;;;;;;5095183;28;20290;-81
2023/03/18 03:26:46;;;;;;;;;;;10.10;1.00;;;;;;5096192;28;19908;-81
2023/03/18 03:29:28;;;;;;;;;;;10.10;1.00;;;;;;5075891;28;19912;-81
2023/03/18 03:32:03;;;;;;;;;;;10.10;1.00;;;;;;5057810;28;19909;-82
2023/03/18 03:37:34;;;;;;;;;;;10.10;1.00;;;;;;5095807;28;19923;-81
2023/03/18 03:43:02;;;;;;;;;;;10.00;1.00;;;;;;5095963;28;19950;-81
2023/03/18 03:45:57;;;;;;;;;;;10.00;1.00;;;;;;5077574;28;19915;-81
2023/03/18 03:48:27;;;;;;;;;;;10.00;1.00;;;;;;5077230;28;19912;-81
2023/03/18 03:50:53;;;;;;;;;;;10.00;1.00;;;;;;5095723;28;20002;-75
2023/03/18 03:53:19;;;;;;;;;;;10.00;1.00;;;;;;5095394;28;19947;-75
2023/03/18 03:55:45;;;;;;;;;;;10.00;1.00;;;;;;5095681;28;20382;-74
2023/03/18 03:58:10;;;;;;;;;;;10.00;1.00;;;;;;5095358;28;19948;-74
2023/03/18 04:00:36;;;;;;;;;;;10.00;1.00;;;;;;5082265;28;20003;-74
2023/03/18 04:03:03;;;;;;;;;;;10.00;1.00;;;;;;5062531;28;20061;-74
2023/03/18 04:05:28;;;;;;;;;;;10.00;1.00;;;;;;5095076;28;19908;-75
2023/03/18 04:07:58;;;;;;;;;;;10.00;1.00;;;;;;5076856;28;20006;-74
2023/03/18 04:10:25;;;;;;;;;;;10.00;1.00;;;;;;5095063;28;19998;-74
2023/03/18 04:12:57;;;;;;;;;;;10.00;1.00;;;;;;5095034;28;19915;-74
2023/03/18 04:15:27;;;;;;;;;;;10.00;1.00;;;;;;5094626;28;20275;-74
2023/03/18 04:17:53;;;;;;;;;;;10.00;1.00;;;;;;5094990;28;19915;-74
2023/03/18 04:20:21;;;;;;;;;;;9.90;1.00;;;;;;5095252;28;19908;-74
2023/03/18 04:22:46;;;;;;;;;;;9.90;1.00;;;;;;5095105;28;19916;-74
2023/03/18 04:25:13;;;;;;;;;;;9.80;1.00;;;;;;5083018;28;19971;-74
2023/03/18 04:27:39;;;;;;;;;;;9.70;1.00;;;;;;5080394;28;19909;-74
2023/03/18 04:30:06;;;;;;;;;;;9.70;1.00;;;;;;5094514;28;19952;-74
2023/03/18 04:32:31;;;;;;;;;;;9.60;1.00;;;;;;5094680;28;19912;-74
2023/03/18 04:34:57;;;;;;;;;;;9.50;1.00;;;;;;5094748;28;20359;-74
2023/03/18 04:37:27;;;;;;;;;;;9.50;1.00;;;;;;5094840;28;20053;-81
2023/03/18 04:39:53;;;;;;;;;;;9.40;1.00;;;;;;5094517;28;19913;-81
2023/03/18 04:42:21;;;;;;;;;;;9.30;1.00;;;;;;5094789;28;19915;-81
2023/03/18 04:47:51;;;;;;;;;;;9.20;1.00;;;;;;5093996;28;20003;-81
2023/03/18 04:50:17;;;;;;;;;;;9.10;1.00;;;;;;5094645;28;19916;-81
2023/03/18 04:52:45;;;;;;;;;;;9.00;1.00;;;;;;5094484;28;20359;-81
2023/03/18 04:58:14;;;;;;;;;;;8.80;1.00;;;;;;5093997;28;19918;-81
2023/03/18 05:00:52;;;;;;;;;;;8.70;1.00;;;;;;5094092;28;20333;-81
2023/03/18 05:03:51;;;;;;;;;;;8.60;1.00;;;;;;5094854;28;19916;-82
2023/03/18 05:06:39;;;;;;;;;;;8.60;1.00;;;;;;5094667;28;19954;-81
2023/03/18 05:12:13;;;;;;;;;;;8.60;1.00;;;;;;5094034;28;19958;-81
2023/03/18 05:15:10;;;;;;;;;;;8.60;1.00;;;;;;5094336;28;19908;-81
2023/03/18 05:17:39;;;;;;;;;;;8.60;1.00;;;;;;5094352;28;19920;-81
2023/03/18 05:20:27;;;;;;;;;;;8.70;1.00;;;;;;5076009;28;20274;-82
2023/03/18 05:22:53;;;;;;;;;;;8.70;1.00;;;;;;5074223;28;20272;-75
2023/03/18 05:25:20;;;;;;;;;;;8.70;1.30;;;;;;5073866;28;19916;-75
2023/03/18 05:27:46;;;;;;;;;;;8.80;1.40;;;;;;5081482;28;20010;-74
2023/03/18 05:30:13;;;;;;;;;;;8.80;1.60;;;;;;5093050;28;19908;-74
2023/03/18 05:32:39;;;;;;;;;;;8.80;1.90;;;;;;5093874;28;19912;-74
2023/03/18 05:38:09;;;;;;;;;;;8.90;1.50;;;;;;5091805;28;19927;-76
2023/03/18 05:40:35;;;;;;;;;;;9.00;1.00;;;;;;5092865;28;19912;-77
2023/03/18 05:43:03;;;;;;;;;;;9.00;1.00;;;;;;5075481;28;20279;-77
2023/03/18 05:45:29;;;;;;;;;;;9.00;1.00;;;;;;5093913;28;19914;-77
2023/03/18 05:47:56;;;;;;;;;;;9.00;3.20;;;;;;5097416;28;19995;-77
2023/03/18 05:50:45;;;;;;;;;;;9.00;1.00;;;;;;5097877;28;19912;-77
2023/03/18 05:53:22;;;;;;;;;;;9.00;1.00;;;;;;5080031;28;20306;-77
2023/03/18 05:55:51;;;;;;;;;;;8.90;1.00;;;;;;5097953;28;19912;-77
2023/03/18 05:58:17;;;;;;;;;;;8.90;1.00;;;;;;5079572;28;19912;-77
2023/03/18 06:00:45;;;;;;;;;;;8.90;1.00;;;;;;5097560;28;20006;-77
2023/03/18 06:03:23;;;;;;;;;;;8.90;1.00;;;;;;5097665;28;19908;-77
2023/03/18 06:05:59;;;;;;;;;;;8.80;1.00;;;;;;5079357;28;19912;-77
2023/03/18 06:08:33;;;;;;;;;;;8.80;1.00;;;;;;5097797;28;19963;-78
2023/03/18 06:11:00;;;;;;;;;;;8.80;1.10;;;;;;5079371;28;19908;-78
2023/03/18 06:13:40;;;;;;;;;;;8.90;1.90;;;;;;5097825;28;19955;-77
2023/03/18 06:16:15;;;;;;;;;;;8.90;2.90;;;;;;5097512;28;19978;-77
2023/03/18 06:18:51;;;;;;;;;;;9.00;3.40;;;;;;5097294;28;19951;-78
2023/03/18 06:21:22;;;;;;;;;;;9.10;2.70;;;;;;5097312;28;19918;-77
2023/03/18 06:23:51;;;;;;;;;;;9.10;2.60;;;;;;5097678;28;19935;-76
2023/03/18 06:26:28;;;;;;;;;;;9.20;2.70;;;;;;5097238;28;19959;-76
2023/03/18 06:28:57;;;;;;;;;;;9.20;3.40;;;;;;5097075;28;19915;-77
2023/03/18 06:31:27;;;;;;;;;;;9.30;4.10;;;;;;5096974;28;19915;-77
2023/03/18 06:33:57;;;;;;;;;;;9.30;4.20;;;;;;5097207;28;19908;-77
2023/03/18 06:36:23;;;;;;;;;;;9.40;1.60;;;;;;5096880;28;20359;-77
2023/03/18 06:38:49;;;;;;;;;;;9.50;1.90;;;;;;5079170;28;19919;-79
2023/03/18 06:41:27;;;;;;;;;;;9.50;2.40;;;;;;5096949;28;20271;-77
2023/03/18 06:44:04;;;;;;;;;;;9.60;3.60;;;;;;5096318;28;19912;-76
2023/03/18 06:46:30;;;;;;;;;;;9.60;3.50;;;;;;5096499;28;19919;-76
2023/03/18 06:49:15;;;;;;;;;;;9.70;4.20;;;;;;5097229;28;19912;-76
2023/03/18 06:52:03;;;;;;;;;;;9.80;2.90;;;;;;5096168;28;19912;-76
2023/03/18 06:54:29;;;;;;;;;;;9.80;3.40;;;;;;5096620;28;19958;-76
2023/03/18 06:56:54;;;;;;;;;;;9.80;2.60;;;;;;5078629;28;19916;-76
2023/03/18 06:59:22;;;;;;;;;;;9.70;2.60;;;;;;5075200;28;20249;-76
2023/03/18 07:01:57;;;;;;;;;;;9.70;2.40;;;;;;5096270;28;19954;-76
2023/03/18 07:04:34;;;;;;;;;;;9.60;2.90;;;;;;5096621;28;19908;-76
2023/03/18 07:07:04;;;;;;;;;;;9.60;2.00;;;;;;5096743;28;20003;-76
2023/03/18 07:09:39;;;;;;;;;;;9.50;2.90;;;;;;5096789;28;19977;-78
2023/03/18 07:12:05;;;;;;;;;;;9.50;2.50;;;;;;5096400;28;19908;-78
2023/03/18 07:14:33;;;;;;;;;;;9.40;3.50;;;;;;5096183;28;19908;-78
2023/03/18 07:16:59;;;;;;;;;;;9.30;3.80;;;;;;5069956;28;20315;-78
2023/03/18 07:19:27;;;;;;;;;;;9.30;4.60;;;;;;5064970;28;19962;-78
2023/03/18 07:22:03;;;;;;;;;;;9.30;6.10;;;;;;5076588;28;19912;-78
2023/03/18 07:24:39;;;;;;;;;;;9.30;6.90;;;;;;5077373;28;19916;-76
2023/03/18 07:27:12;;;;;;;;;;;9.30;8.80;;;;;;5092726;28;20318;-76
2023/03/18 07:29:39;;;;;;;;;;;9.40;11.00;;;;;;5096182;28;19959;-76
2023/03/18 07:32:17;;;;;;;;;;;9.40;12.90;;;;;;5095688;28;19908;-76
2023/03/18 07:34:46;;;;;;;;;;;9.50;15.20;;;;;;5095573;28;20275;-76
2023/03/18 07:37:12;;;;;;;;;;;9.60;18.20;;;;;;5083530;28;19920;-76
2023/03/18 07:39:38;;;;;;;;;;;9.70;22.80;;;;;;5095830;28;19999;-76
2023/03/18 07:42:04;;;;;;;;;;;9.80;24.20;;;;;;5095766;28;20271;-76
2023/03/18 07:44:30;;;;;;;;;;;9.70;22.20;;;;;;5095939;28;19961;-76
2023/03/18 07:46:56;;;;;;;;;;;9.80;17.20;;;;;;5095864;28;19930;-77
2023/03/18 07:49:22;;;;;;;;;;;9.80;13.70;;;;;;5075960;28;20376;-77
2023/03/18 07:51:48;;;;;;;;;;;10.00;3.20;;;;;;5095370;28;20381;-77
2023/03/18 07:54:22;;;;;;;;;;;10.00;1.00;;;;;;5095431;28;19914;-76
2023/03/18 07:56:57;;;;;;;;;;;10.00;1.00;;;;;;5095216;28;19912;-77
2023/03/18 07:59:27;;;;;;;;;;;10.10;1.00;;;;;;5095553;28;19942;-76
2023/03/18 08:01:57;;;;;;;;;;;10.20;1.00;;;;;;5095328;28;20008;-76
2023/03/18 08:04:34;;;;;;;;;;;10.30;1.00;;;;;;5095323;28;19908;-77
2023/03/18 08:07:00;;;;;;;;;;;10.50;1.00;;;;;;5077070;28;19908;-77
2023/03/18 08:09:26;;;;;;;;;;;10.60;1.00;;;;;;5095326;28;19916;-78
2023/03/18 08:11:52;;;;;;;;;;;10.80;1.00;;;;;;5095243;28;19908;-78
2023/03/18 08:14:33;;;;;;;;;;;10.90;1.00;;;;;;5094908;28;19931;-78
2023/03/18 08:16:59;;;;;;;;;;;11.10;1.00;;;;;;5094295;28;20431;-79
2023/03/18 08:19:25;;;;;;;;;;;11.30;1.00;;;;;;5094944;28;19947;-79
2023/03/18 08:21:51;;;;;;;;;;;11.40;1.00;;;;;;5073169;28;19909;-78
2023/03/18 08:24:21;;;;;;;;;;;11.50;1.00;;;;;;5094043;28;19966;-76
2023/03/18 08:27:09;;;;;;;;;;;11.70;1.00;;;;;;5094502;28;19912;-77
2023/03/18 08:29:39;;;;;;;;;;;11.80;1.00;;;;;;5094963;28;19912;-77
2023/03/18 08:32:05;;;;;;;;;;;12.00;1.00;;;;;;5094502;28;19912;-77
2023/03/18 08:34:40;;;;;;;;;;;12.20;1.00;;;;;;5093382;28;19930;-77
2023/03/18 08:37:07;;;;;;;;;;;12.30;1.00;;;;;;5094345;28;19958;-77
2023/03/18 08:39:32;;;;;;;;;;;12.30;1.00;;;;;;5089813;28;19916;-77
2023/03/18 08:42:03;;;;;;;;;;;12.60;1.00;;;;;;5094007;28;19963;-77
2023/03/18 08:44:29;;;;;;;;;;;12.70;1.00;;;;;;5076039;28;20418;-77
2023/03/18 08:46:56;;;;;;;;;;;12.70;1.00;;;;;;5093807;28;20410;-77
2023/03/18 08:49:33;;;;;;;;;;;12.80;1.00;;;;;;5094320;28;19917;-77
2023/03/18 08:52:03;;;;;;;;;;;12.80;1.00;;;;;;5077353;28;19915;-78
2023/03/18 08:54:45;;;;;;;;;;;12.90;1.00;;;;;;5087078;28;20286;-77
2023/03/18 08:57:11;;;;;;;;;;;13.10;1.00;;;;;;5094029;28;19919;-77
2023/03/18 08:59:45;;;;;;;;;;;13.20;1.00;;;;;;5094312;28;19967;-78
2023/03/18 09:02:14;;;;;;;;;;;13.30;1.00;;;;;;5094335;28;19908;-78
2023/03/18 09:04:52;;;;;;;;;;;13.40;1.00;;;;;;5093955;28;19908;-78
2023/03/18 09:07:18;;;;;;;;;;;13.50;1.00;;;;;;5094253;28;19908;-78
2023/03/18 09:09:57;;;;;;;;;;;13.70;1.00;;;;;;5093836;28;20042;-79
2023/03/18 09:12:23;;;;;;;;;;;13.80;1.00;;;;;;5094190;28;19999;-79
2023/03/18 09:14:49;;;;;;;;;;;13.90;1.00;;;;;;5094225;28;19947;-77
2023/03/18 09:17:14;;;;;;;;;;;14.00;1.00;;;;;;5075643;28;19912;-81
2023/03/18 09:19:40;;;;;;;;;;;14.00;1.00;;;;;;5093760;28;19923;-75
2023/03/18 09:22:07;;;;;;;;;;;14.00;1.00;;;;;;5092651;28;19915;-75
2023/03/18 09:24:33;;;;;;;;;;;14.10;1.00;;;;;;5093926;28;19912;-79
2023/03/18 09:27:03;;;;;;;;;;;14.30;1.00;;;;;;5093610;28;19986;-80
2023/03/18 09:29:33;;;;;;;;;;;14.40;1.00;;;;;;5094042;28;19908;-80
2023/03/18 09:32:15;;;;;;;;;;;14.40;1.00;;;;;;5093931;28;19915;-80
2023/03/18 09:34:41;;;;;;;;;;;14.50;1.00;;;;;;5093646;28;19995;-80
2023/03/18 09:37:16;;;;;;;;;;;14.70;1.00;;;;;;5093538;28;20011;-80
2023/03/18 09:39:46;;;;;;;;;;;14.90;1.00;;;;;;5094033;28;19916;-75
2023/03/18 09:42:21;;;;;;;;;;;15.00;1.00;;;;;;5094001;28;19908;-75
2023/03/18 09:44:54;;;;;;;;;;;15.00;1.00;;;;;;5093171;28;20279;-75
2023/03/18 09:47:27;;;;;;;;;;;15.20;1.00;;;;;;5093518;28;19916;-75
2023/03/18 09:50:11;;;;;;;;;;;15.30;1.00;;;;;;5087722;28;19916;-75
2023/03/18 09:52:49;;;;;;;;;;;15.40;1.00;;;;;;5075631;28;20256;-75
2023/03/18 09:55:38;;;;;;;;;;;15.50;1.00;;;;;;5094012;28;20283;-75
2023/03/18 09:58:12;;;;;;;;;;;15.60;1.00;;;;;;5075456;28;20282;-76
2023/03/18 10:00:38;;;;;;;;;;;15.60;1.00;;;;;;5093383;28;19918;-75
2023/03/18 10:03:27;;;;;;;;;;;15.50;1.00;;;;;;5092547;28;20387;-75
2023/03/18 10:05:57;;;;;;;;;;;15.50;1.00;;;;;;5089384;28;19955;-76
2023/03/18 10:08:26;;;;;;;;;;;15.50;1.00;;;;;;5075240;28;19908;-75
2023/03/18 10:10:51;;;;;;;;;;;15.50;1.00;;;;;;5075848;28;20271;-75
2023/03/18 10:13:28;;;;;;;;;;;15.60;1.00;;;;;;5075333;28;20018;-76
2023/03/18 10:15:55;;;;;;;;;;;15.60;1.00;;;;;;5093435;28;19991;-75
2023/03/18 10:18:26;;;;;;;;;;;15.70;1.00;;;;;;5093343;28;19908;-76
2023/03/18 10:21:19;;;;;;;;;;;15.90;1.00;;;;;;5093770;28;19909;-76
2023/03/18 10:23:51;;;;;;;;;;;16.10;1.00;;;;;;5093492;28;19908;-76
2023/03/18 10:26:25;;;;;;;;;;;16.10;1.00;;;;;;5093741;28;20329;-80
2023/03/18 10:28:53;;;;;;;;;;;16.40;1.00;;;;;;5093340;28;19908;-80
2023/03/18 10:31:45;;;;;;;;;;;16.40;1.00;;;;;;5093472;28;19908;-80
2023/03/18 10:34:17;;;;;;;;;;;16.50;1.00;;;;;;5096731;28;20002;-80
2023/03/18 10:39:48;;;;;;;;;;;16.60;1.00;;;;;;5096951;28;19922;-80
2023/03/18 10:42:28;;;;;;;;;;;16.70;1.00;;;;;;5096697;28;19920;-75
2023/03/18 10:45:07;;;;;;;;;;;16.80;1.00;;;;;;5096452;28;19908;-76
2023/03/18 10:47:35;;;;;;;;;;;16.90;1.00;;;;;;5096526;28;19912;-75
2023/03/18 10:50:20;;;;;;;;;;;16.90;1.00;;;;;;5096472;28;19916;-76
2023/03/18 10:52:48;;;;;;;;;;;16.90;1.00;;;;;;5097018;28;19908;-76
2023/03/18 10:55:30;;;;;;;;;;;17.00;1.00;;;;;;5096805;28;20002;-80
2023/03/18 10:57:58;;;;;;;;;;;16.80;1.00;;;;;;5076279;28;19916;-80
2023/03/18 11:00:34;;;;;;;;;;;17.00;1.00;;;;;;5076628;28;20364;-80
2023/03/18 11:03:17;;;;;;;;;;;17.20;1.00;;;;;;5062354;28;20409;-80
2023/03/18 11:05:45;;;;;;;;;;;17.40;1.00;;;;;;5096395;28;20256;-81
2023/03/18 11:08:41;;;;;;;;;;;17.50;1.00;;;;;;5096499;28;19950;-80
2023/03/18 11:11:26;;;;;;;;;;;17.70;1.00;;;;;;5017947;28;20419;-75
2023/03/18 11:13:54;;;;;;;;;;;17.80;1.00;;;;;;5033893;28;20368;-75
2023/03/18 11:16:29;;;;;;;;;;;17.90;1.00;;;;;;5034133;28;19928;-76
2023/03/18 11:18:55;;;;;;;;;;;17.60;1.00;;;;;;5034306;28;19957;-76
2023/03/18 11:21:22;;;;;;;;;;;17.70;1.00;;;;;;5033645;28;20367;-75
2023/03/18 11:24:09;;;;;;;;;;;17.60;1.00;;;;;;5033436;28;19913;-75
2023/03/18 11:26:47;;;;;;;;;;;17.50;1.00;;;;;;5034024;28;19913;-82
2023/03/18 11:29:34;;;;;;;;;;;17.60;1.00;;;;;;5034008;28;19913;-81
2023/03/18 11:32:36;;;;;;;;;;;17.80;1.00;;;;;;5033788;28;19909;-81
2023/03/18 11:35:03;;;;;;;;;;;17.80;1.00;;;;;;4959438;28;19942;-82
2023/03/18 11:37:40;;;;;;;;;;;17.90;1.00;;;;;;4955271;29;19925;-82
2023/03/18 11:40:17;;;;;;;;;;;18.10;1.00;;;;;;4963365;28;19918;-81
2023/03/18 11:42:56;;;;;;;;;;;18.10;1.00;;;;;;4975107;28;19933;-81
2023/03/18 11:48:35;;;;;;;;;;;18.20;1.00;;;;;;5008441;28;19939;-82
2023/03/18 11:51:04;;;;;;;;;;;18.20;1.00;;;;;;5005928;28;19999;-82
2023/03/18 11:54:03;;;;;;;;;;;18.30;1.00;;;;;;5013719;28;19909;-83
2023/03/18 11:57:00;;;;;;;;;;;18.20;1.00;;;;;;5014184;28;19955;-76
2023/03/18 11:59:28;;;;;;;;;;;18.20;1.00;;;;;;4974408;28;20388;-75
2023/03/18 12:02:03;;;;;;;;;;;18.70;1.00;;;;;;4968094;28;20199;-75
2023/03/18 12:04:29;;;;;;;;;;;18.70;1.00;;;;;;4968744;28;19910;-76
2023/03/18 12:07:11;;;;;;;;;;;18.80;1.00;;;;;;4966763;28;19961;-76
2023/03/18 12:09:47;;;;;;;;;;;18.90;1.00;;;;;;5005635;28;20388;-76
2023/03/18 12:12:13;;;;;;;;;;;19.20;1.00;;;;;;5023205;28;19924;-76
2023/03/18 12:14:45;;;;;;;;;;;19.40;1.00;;;;;;5021161;28;19910;-76
2023/03/18 12:17:18;;;;;;;;;;;19.20;1.00;;;;;;5021809;28;19992;-76
2023/03/18 12:19:43;;;;;;;;;;;19.20;1.00;;;;;;5025106;28;19910;-76
2023/03/18 12:22:26;;;;;;;;;;;19.60;1.00;;;;;;5030506;28;19919;-76
2023/03/18 12:25:11;;;;;;;;;;;20.00;1.00;;;;;;5013127;28;19944;-76
2023/03/18 12:30:52;;;;;;;;;;;20.50;1.00;;;;;;5012999;28;20056;-82
2023/03/18 12:33:27;;;;;;;;;;;20.10;1.00;;;;;;5014808;28;19920;-82
2023/03/18 12:36:19;;;;;;;;;;;20.10;1.00;;;;;;5032474;28;19977;-82
2023/03/18 12:39:09;;;;;;;;;;;20.10;1.00;;;;;;5012785;28;19916;-82
2023/03/18 12:41:39;;;;;;;;;;;20.00;1.00;;;;;;5017199;28;19940;-82
2023/03/18 12:50:14;;;;;;;;;;;20.60;1.00;;;;;;5050932;28;19919;-81
2023/03/18 12:53:09;;;;;;;;;;;20.90;1.00;;;;;;5035194;28;20320;-81
2023/03/18 12:55:42;;;;;;;;;;;20.80;1.00;;;;;;5033494;28;20353;-81
2023/03/18 12:58:18;;;;;;;;;;;20.70;1.00;;;;;;5006190;28;19923;-75
2023/03/18 13:00:44;;;;;;;;;;;20.20;1.00;;;;;;5030611;28;19913;-75
2023/03/18 13:03:12;;;;;;;;;;;19.70;1.00;;;;;;5031104;28;19971;-75
2023/03/18 13:05:57;;;;;;;;;;;19.70;1.00;;;;;;5031877;28;20428;-75
2023/03/18 13:08:34;;;;;;;;;;;19.50;1.00;;;;;;5007521;28;19967;-75
2023/03/18 13:11:09;;;;;;;;;;;19.30;1.00;;;;;;5031934;28;20019;-75
2023/03/18 13:13:35;;;;;;;;;;;19.30;1.00;;;;;;5032059;28;19921;-75
2023/03/18 13:16:03;;;;;;;;;;;19.40;1.00;;;;;;5073440;28;19927;-75
2023/03/18 13:18:32;;;;;;;;;;;19.40;1.00;;;;;;5093734;28;20002;-75
2023/03/18 13:20:58;;;;;;;;;;;19.60;1.00;;;;;;5093911;28;19916;-75
2023/03/18 13:23:43;;;;;;;;;;;19.70;1.00;;;;;;5091071;28;19912;-75
2023/03/18 13:26:12;;;;;;;;;;;19.60;1.00;;;;;;5086890;28;19920;-75
2023/03/18 13:28:40;;;;;;;;;;;19.60;1.00;;;;;;5091734;28;19916;-81
2023/03/18 13:31:42;;;;;;;;;;;19.70;1.00;;;;;;5093541;28;19916;-81
2023/03/18 13:34:33;;;;;;;;;;;19.70;1.00;;;;;;5012108;28;20380;-80
2023/03/18 13:37:16;;;;;;;;;;;19.60;1.00;;;;;;5012255;28;19960;-81
2023/03/18 13:39:57;;;;;;;;;;;19.70;1.00;;;;;;5002557;28;19910;-82
2023/03/18 13:42:27;;;;;;;;;;;19.80;1.00;;;;;;4992561;28;19965;-75
2023/03/18 13:44:56;;;;;;;;;;;19.80;1.00;;;;;;5011792;28;19910;-76
2023/03/18 13:47:22;;;;;;;;;;;20.00;1.00;;;;;;4992312;28;20373;-75
2023/03/18 13:50:12;;;;;;;;;;;20.10;1.00;;;;;;5002254;28;19922;-75
2023/03/18 13:52:41;;;;;;;;;;;20.10;1.00;;;;;;5003348;28;19927;-75
2023/03/18 13:55:27;;;;;;;;;;;20.30;1.00;;;;;;5029870;28;19913;-75
2023/03/18 13:57:57;;;;;;;;;;;20.40;1.00;;;;;;5031683;28;20015;-76
2023/03/18 14:00:32;;;;;;;;;;;20.50;1.00;;;;;;5031897;28;20376;-76
2023/03/18 14:03:11;;;;;;;;;;;20.70;1.00;;;;;;5031825;28;19925;-76
2023/03/18 14:05:39;;;;;;;;;;;20.60;1.00;;;;;;5020030;28;20057;-76
2023/03/18 14:08:26;;;;;;;;;;;20.50;1.00;;;;;;5053983;28;20300;-84
2023/03/18 14:14:00;;;;;;;;;;;20.30;1.00;;;;;;5098047;28;19955;-84
2023/03/18 14:16:28;;;;;;;;;;;20.30;1.00;;;;;;5097418;28;20006;-84
2023/03/18 14:25:09;;;;;;;;;;;20.50;1.00;;;;;;5097396;28;20436;-85
2023/03/18 14:27:54;;;;;;;;;;;20.50;1.00;;;;;;5097718;28;19908;-77
2023/03/18 14:30:40;;;;;;;;;;;20.30;1.00;;;;;;5097221;28;19914;-77
2023/03/18 14:33:26;;;;;;;;;;;20.70;1.00;;;;;;5097201;28;20396;-77
2023/03/18 14:36:21;;;;;;;;;;;20.90;1.00;;;;;;5086749;28;19908;-76
2023/03/18 14:39:05;;;;;;;;;;;21.30;1.00;;;;;;5076861;28;19919;-76
2023/03/18 14:41:33;;;;;;;;;;;21.60;1.00;;;;;;5076626;28;19917;-76
2023/03/18 14:44:03;;;;;;;;;;;21.70;1.00;;;;;;5077366;28;19908;-77
2023/03/18 14:46:48;;;;;;;;;;;21.60;1.00;;;;;;5097482;28;19951;-77
2023/03/18 14:49:34;;;;;;;;;;;21.60;1.00;;;;;;5094876;28;19923;-76
2023/03/18 14:52:21;;;;;;;;;;;21.50;1.00;;;;;;5089347;28;19912;-77
2023/03/18 14:55:00;;;;;;;;;;;21.30;1.00;;;;;;5087965;28;20256;-77
2023/03/18 15:00:40;;;;;;;;;;;21.10;1.00;;;;;;5097166;28;19914;-86
2023/03/18 15:09:18;;;;;;;;;;;21.10;1.00;;;;;;5096842;28;20346;-85
2023/03/18 15:14:58;;;;;;;;;;;21.30;1.00;;;;;;5097005;28;19915;-77
2023/03/18 15:17:26;;;;;;;;;;;21.40;1.00;;;;;;5096196;28;20332;-77
2023/03/18 15:20:04;;;;;;;;;;;21.30;1.00;;;;;;5095272;28;20006;-77
2023/03/18 15:22:46;;;;;;;;;;;21.00;1.00;;;;;;5077726;28;19912;-77
2023/03/18 15:25:16;;;;;;;;;;;20.60;1.00;;;;;;5096072;28;19908;-77
2023/03/18 15:30:55;;;;;;;;;;;20.40;1.00;;;;;;5095893;28;19974;-84
2023/03/18 15:36:24;;;;;;;;;;;20.10;1.00;;;;;;5096113;28;19919;-85
2023/03/18 15:41:53;;;;;;;;;;;20.30;1.00;;;;;;5095883;28;19990;-85
2023/03/18 15:44:27;;;;;;;;;;;20.30;1.00;;;;;;5096342;28;19954;-77
2023/03/18 15:46:54;;;;;;;;;;;20.20;1.00;;;;;;5095721;28;19919;-76
2023/03/18 15:49:25;;;;;;;;;;;20.20;1.00;;;;;;5095782;28;20414;-76
2023/03/18 15:51:56;;;;;;;;;;;20.00;1.00;;;;;;5095614;28;19959;-76
2023/03/18 15:54:26;;;;;;;;;;;19.80;1.00;;;;;;5095910;28;19908;-77
2023/03/18 15:56:53;;;;;;;;;;;19.70;1.00;;;;;;5095356;28;19912;-77
2023/03/18 15:59:51;;;;;;;;;;;19.60;1.00;;;;;;5095947;28;19908;-85
2023/03/18 16:05:21;;;;;;;;;;;19.20;1.00;;;;;;5095629;28;19914;-85
2023/03/18 16:23:02;;;;;;;;;;;19.40;1.00;;;;;;5095108;28;20303;-84
2023/03/18 16:31:33;;;;;;;;;;;23.00;1.00;;;;;;5094916;28;19962;-85
2023/03/18 16:37:01;;;;;;;;;;;23.90;1.00;;;;;;5094938;28;19966;-85
2023/03/18 16:42:30;;;;;;;;;;;24.50;1.00;;;;;;5094555;28;19923;-85
2023/03/18 16:45:23;;;;;;;;;;;24.80;1.00;;;;;;5095036;28;19912;-84
2023/03/18 16:50:51;;;;;;;;;;;24.80;1.00;;;;;;5094891;28;19919;-84
2023/03/18 16:56:22;;;;;;;;;;;24.40;1.00;;;;;;5094391;28;19919;-84
2023/03/18 17:01:53;;;;;;;;;;;23.90;1.00;;;;;;5094470;28;20315;-83
2023/03/18 17:07:21;;;;;;;;;;;23.20;1.00;;;;;;5094324;28;20378;-83
2023/03/18 17:12:56;;;;;;;;;;;22.40;1.00;;;;;;5094274;28;19916;-82
2023/03/18 17:15:41;;;;;;;;;;;21.80;1.00;;;;;;5075586;28;20260;-84
2023/03/18 17:21:11;;;;;;;;;;;20.90;1.00;;;;;;5094185;28;19915;-83
2023/03/18 17:29:42;;;;;;;;;;;19.50;1.00;;;;;;5092219;28;19919;-84
2023/03/18 17:35:16;;;;;;;;;;;18.60;1.00;;;;;;5087990;28;19916;-88
2023/03/18 17:37:46;;;;;;;;;;;18.20;1.00;;;;;;5056347;28;19951;-84
2023/03/18 17:43:35;;;;;;;;;;;17.50;1.00;;;;;;5076169;28;20439;-84